This is the latest recevied weather packets stored in our database for station/object SR2WXM. If no packets are shown the sender has not sent any weather packets the latest 1 day(s).
| Time | Temp. | Humidity | Pressure | Rain* | Wind** | Luminosity | Snow |
|---|---|---|---|---|---|---|---|
| 1777996801 | 16.67° C | 66% | 1005.7 hPa | 0 mm | 2.68 m/s, 348° | - | - |
| 1777995902 | 16.67° C | 63% | 1005.7 hPa | 0 mm | 3.58 m/s, 17° | - | - |
| 1777995003 | 17.78° C | 62% | 1005.7 hPa | 0 mm | 3.58 m/s, 85° | - | - |
| 1777994102 | 18.89° C | 61% | 1005.7 hPa | 0 mm | 3.58 m/s, 9° | - | - |
| 1777993203 | 18.89° C | 60% | 1005.7 hPa | 0 mm | 4.47 m/s, 317° | - | - |
| 1777992302 | 20° C | 61% | 1005.7 hPa | 0 mm | 3.13 m/s, 314° | - | - |
| 1777991403 | 20.56° C | 61% | 1005.7 hPa | 0 mm | 3.58 m/s, 336° | - | - |
| 1777990502 | 20.56° C | 60% | 1005.7 hPa | 0 mm | 3.58 m/s, 30° | - | - |
| 1777989603 | 20.56° C | 59% | 1005.7 hPa | 0 mm | 1.79 m/s, 270° | - | - |
| 1777988703 | 20.56° C | 59% | 1005.7 hPa | 0 mm | 0.89 m/s, 45° | - | - |
| 1777987803 | 20.56° C | 62% | 1005.7 hPa | 0 mm | 2.24 m/s, 350° | - | - |
| 1777986902 | 20.56° C | 62% | 1005.7 hPa | 0 mm | 2.68 m/s, 347° | - | - |
| 1777986002 | 20.56° C | 64% | 1005.7 hPa | 0 mm | 1.79 m/s, 356° | - | - |
| 1777985101 | 20.56° C | 64% | 1006.1 hPa | 0 mm | 3.58 m/s, 45° | - | - |
| 1777984202 | 20° C | 67% | 1006.4 hPa | 0 mm | 2.68 m/s, 32° | - | - |
| 1777983303 | 20° C | 71% | 1006.4 hPa | 0 mm | 1.79 m/s, 353° | - | - |
| 1777982402 | 20.56° C | 71% | 1006.4 hPa | 0 mm | 1.79 m/s, 317° | - | - |
| 1777981502 | 18.89° C | 72% | 1006.4 hPa | 0 mm | 3.13 m/s, 56° | - | - |
| 1777980603 | 18.89° C | 76% | 1006.4 hPa | 0 mm | 1.79 m/s, 342° | - | - |
| 1777979703 | 20° C | 72% | 1006.4 hPa | 0 mm | 1.34 m/s, 33° | - | - |
| 1777978802 | 18.89° C | 76% | 1006.7 hPa | 0 mm | 2.68 m/s, 0° | - | - |
| 1777977903 | 17.78° C | 78% | 1006.7 hPa | 0 mm | 2.24 m/s, 352° | - | - |
| 1777977003 | 17.78° C | 81% | 1006.7 hPa | 0 mm | 2.24 m/s, 250° | - | - |
| 1777976102 | 17.78° C | 81% | 1006.7 hPa | 0 mm | 2.24 m/s, 12° | - | - |
| 1777975202 | 17.78° C | 83% | 1007.4 hPa | 0 mm | 2.24 m/s, 320° | - | - |
* Rain latest hour (hover to see other rain measurements)
** Current wind speed in m/s (hover to see current wind gust speed)